Tiempo atmosférico en la estación meteorológica de Blanes, Girona (60 m.)



Fecha
DESCASC
Temp. máxima en grados centígrados (hora)
DESCASC
Temp. mínima en grados centígrados (hora)
DESCASC
Temp. media en grados centígrados
DESCASC
Racha de viento máxima en m/sg (hora)
DESCASC
Velocidad máxima media en intervalos de 10 minutos(hora)
DESCASC
Precipitaciones diarias en mm
DESCASC
Precipitaciones de 00:00 a 06:00 en mm
DESCASC
Precipitaciones de 06:00 a 12:00 en mm
DESCASC
Precipitaciones de 12:00 a 18:00 en mm
DESCASC
Precipitaciones de 18:00 a 24:00 en mm
DESCASC
17-09-2020 29.9 (15:30) 23.1 (08:00) 26.5 9.17 (05:30) 6.11 (05:20) 0 0 0 0 0
16-09-2020 29.4 (16:20) 21.2 (06:00) 25.3 6.94 (18:30) 4.44 (06:00) 0 0 0 0 0
15-09-2020 31.2 (15:00) 20.2 (06:30) 25.7 7.78 (11:30) 3.89 (13:30) 0 0 0 0 0
14-09-2020 29.6 (16:20) 20.2 (00:00) 24.9 5.28 (02:40) 3.33 (02:30) 0 0 0 0 0
13-09-2020 31.4 (11:40) 21.5 (00:00) 26.4 9.17 (01:30) 6.11 (07:30) 0 0 0 0 0
12-09-2020 32.4 (13:10) 22.1 (00:00) 27.3 7.78 (08:40) 5.28 (08:30) 0 0 0 0 0
11-09-2020 31.4 (14:30) 20.1 (00:00) 25.8 8.89 (14:10) 5.28 (14:10) 0.2 0.2 0 0 0
10-09-2020 28.2 (13:00) 18.1 (00:00) 23.2 7.22 (14:20) 4.17 (12:30) 1.2 0 0 1.2 0
09-09-2020 27.1 (14:20) 18.5 (00:00) 22.8 10.28 (15:30) 6.67 (16:10) 0.8 0.8 0 0 0
08-09-2020 26 (14:40) 15.9 (00:00) 20.9 13.33 (15:00) 7.22 (14:50) 0.4 0 0 0 0.4
07-09-2020 26 (15:10) 15.9 (05:50) 20.9 10.56 (01:30) 6.67 (01:10) 4.8 4.8 0 0 0
06-09-2020 28.7 (14:10) 18.6 (00:00) 23.7 10.83 (23:30) 6.39 (22:50) 0.2 0 0 0 0.2
05-09-2020 27.5 (12:10) 21.1 (00:00) 24.3 7.22 (13:30) 5 (13:20) 0 0 0 0 0
04-09-2020 29.5 (15:50) 20.4 (00:00) 24.9 7.22 (03:30) 4.17 (03:40) 0 0 0 0 0
03-09-2020 29.8 (14:20) 19.8 (00:00) 24.8 6.11 (07:30) 3.61 (06:10) 0 0 0 0 0
02-09-2020 27.3 (14:30) 17.4 (00:00) 22.3 13.89 (16:00) 8.06 (16:30) 0 0 0 0 0
01-09-2020 26.2 (15:20) 17.2 (00:00) 21.7 10.83 (22:10) 6.39 (23:00) 3 0 0 0 3
31-08-2020 26.2 (14:00) 14.8 (00:00) 20.5 13.61 (16:20) 8.33 (16:00) 0.2 0.2 0 0 0
30-08-2020 27.7 (16:30) 14.5 (00:00) 21.1 10.83 (19:20) 6.67 (19:20) 3.4 0 0 0 3.4
29-08-2020 22.9 (15:40) 14.6 (00:00) 18.8 11.94 (10:00) 5.83 (08:00) 14.8 5.4 7.8 0.2 1.4
28-08-2020 33.3 (14:50) 20.4 (00:00) 26.8 13.61 (19:30) 8.61 (18:50) 0 0 0 0 0
27-08-2020 33.1 (14:50) 23.7 (00:00) 28.4 8.61 (20:20) 5.83 (20:10) 0 0 0 0 0
26-08-2020 32.4 (13:20) 23.6 (00:00) 28 8.61 (19:10) 5.83 (19:20) 0 0 0 0 0
25-08-2020 30.7 (12:20) 21.9 (00:00) 26.3 16.39 (16:20) 9.17 (15:20) 0 0 0 0 0
24-08-2020 31.8 (14:20) 21.1 (00:00) 26.4 9.17 (17:20) 5.28 (17:40) 0.6 0.6 0 0 0
23-08-2020 32.7 (12:40) 22.1 (00:00) 27.4 8.06 (05:30) 5 (01:50) 0 0 0 0 0
22-08-2020 33.7 (14:30) 24.6 (00:00) 29.2 7.22 (07:20) 5 (07:20) 0 0 0 0 0
21-08-2020 33.3 (16:00) 23.6 (00:00) 28.4 5.83 (16:10) 3.33 (15:50) 0 0 0 0 0
20-08-2020 32.7 (14:40) 23.8 (00:00) 28.3 7.5 (01:40) 4.72 (02:30) 0 0 0 0 0
19-08-2020 31.7 (13:30) 22.5 (00:00) 27.1 15.28 (19:30) 9.44 (15:30) 0 0 0 0 0

Gráficas

Temp. máximas Temp. mínimas Temp. medias Precipitaciones Rachas de viento máximas Velocidades máximas media en intervalos de 10 minutos

Datos horarios

Fecha y hora oficial Temperatura (ºC) Velocidad del viento (km/h) Dirección del viento Racha (km/h) Dirección de racha Precipitación (mm) Presión (hPa) Tendencia (hPa) Humedad (%)
2020-09-17 23:00:00 24.3 5 Sudoeste 23 Sudoeste 0 -- -- 88
2020-09-17 22:00:00 24.4 11 Sudoeste 26 Oeste 0 -- -- 89
2020-09-17 21:00:00 24.6 16 Sudoeste 32 Sur 0 -- -- 87
2020-09-17 20:00:00 24.8 10 Sudoeste 26 Sudoeste 0 -- -- 85
2020-09-17 19:00:00 25.3 9 Sur 15 Sudoeste 0 -- -- 76
2020-09-17 18:00:00 26.1 7 Este 12 Este 0 -- -- 68
2020-09-17 17:00:00 26.6 10 Este 15 Este 0 -- -- 64
2020-09-17 16:00:00 28.8 4 Sudeste 13 Sudeste 0 -- -- 56
2020-09-17 15:00:00 28.8 7 Sudeste 11 Sudeste 0 -- -- 57
2020-09-17 14:00:00 27.5 5 Sudeste 10 Este 0 -- -- 65
2020-09-17 13:00:00 26.6 4 Este 9 Este 0 -- -- 69
2020-09-17 12:00:00 27.2 6 Este 10 Nordeste 0 -- -- 67
2020-09-17 11:00:00 27.9 4 Sudeste 7 Sur 0 -- -- 58
2020-09-17 10:00:00 26.7 3 Sudeste 9 Este 0 -- -- 57
2020-09-17 09:00:00 25 4 Norte 15 Norte 0 -- -- 56
2020-09-17 08:00:00 23.1 6 Noroeste 18 Noroeste 0 -- -- 60
2020-09-17 07:00:00 24.5 16 Noroeste 29 Noroeste 0 -- -- 53
2020-09-17 06:00:00 24.3 20 Noroeste 33 Noroeste 0 -- -- 55
2020-09-17 05:00:00 24 20 Noroeste 30 Noroeste 0 -- -- 58
2020-09-17 04:00:00 23.9 18 Noroeste 27 Noroeste 0 -- -- 59
2020-09-17 03:00:00 23.8 17 Noroeste 24 Noroeste 0 -- -- 60
2020-09-17 02:00:00 24.1 12 Noroeste 19 Noroeste 0 -- -- 60
2020-09-17 01:00:00 24.5 10 Noroeste 23 Noroeste 0 -- -- 62
2020-09-17 00:00:00 24.1 8 Noroeste 22 Noroeste 0 -- -- 68
2020-09-16 23:00:00 23.6 7 Noroeste 13 Noroeste 0 -- -- 74
2020-09-16 22:00:00 23.6 8 Oeste 13 Sudoeste 0 -- -- 86
2020-09-16 21:00:00 24.2 6 Oeste 18 Sudoeste 0 -- -- 85
2020-09-16 20:00:00 24.7 11 Sudoeste 22 Sudoeste 0 -- -- 85
2020-09-16 19:00:00 25.5 8 Sudoeste 25 Sudoeste 0 -- -- 78
2020-09-16 18:00:00 27.8 13 Sur 24 Sur 0 -- -- 72
2020-09-16 17:00:00 28.8 7 Sur 13 Sur 0 -- -- 68
2020-09-16 16:00:00 29 9 Sur 13 Sur 0 -- -- 69
2020-09-16 15:00:00 27.6 7 Sur 14 Sudeste 0 -- -- 72
2020-09-16 14:00:00 28.1 8 Sur 13 Sudeste 0 -- -- 69
2020-09-16 13:00:00 27.5 8 Sudeste 12 Sudeste 0 -- -- 71
2020-09-16 12:00:00 27.1 6 Sudeste 11 Sur 0 -- -- 74
2020-09-16 11:00:00 25.4 6 Sudeste 10 Sudeste 0 -- -- 80
2020-09-16 10:00:00 23.7 3 Sur 10 Este 0 -- -- 84
2020-09-16 09:00:00 22.9 6 Este 9 Este 0 -- -- 86
2020-09-16 08:00:00 21.3 6 Noroeste 12 Noroeste 0 -- -- 86
2020-09-16 07:00:00 21.3 5 Noroeste 22 Noroeste 0 -- -- 86
2020-09-16 06:00:00 21.2 16 Noroeste 22 Noroeste 0 -- -- 83
2020-09-16 05:00:00 21.9 10 Noroeste 15 Noroeste 0 -- -- 86
2020-09-16 04:00:00 22.3 9 Noroeste 16 Noroeste 0 -- -- 86
2020-09-16 03:00:00 22.3 11 Noroeste 19 Noroeste 0 -- -- 86
2020-09-16 02:00:00 22.5 7 Noroeste 10 Noroeste 0 -- -- 90
2020-09-16 01:00:00 23 3 Oeste 15 Sudoeste 0 -- -- 91
2020-09-16 00:00:00 23.4 7 Sudoeste 17 Oeste 0 -- -- 92
2020-09-15 23:00:00 23.6 8 Oeste 18 Sudoeste 0 -- -- 88
2020-09-15 22:00:00 23.8 7 Sudoeste 17 Sudoeste 0 -- -- 87
2020-09-15 21:00:00 24.2 5 Sudoeste 17 Sudoeste 0 -- -- 87
2020-09-15 20:00:00 24.7 11 Sur 21 Sudoeste 0 -- -- 83
2020-09-15 19:00:00 26.1 12 Sur 23 Sur 0 -- -- 76
2020-09-15 18:00:00 28 13 Sur 23 Sudoeste 0 -- -- 69
2020-09-15 17:00:00 29.7 8 Sur 18 Sudoeste 0 -- -- 65
2020-09-15 16:00:00 30.7 9 Sur 17 Sudoeste 0 -- -- 61
2020-09-15 15:00:00 31.2 9 Sur 17 Sur 0 -- -- 59
2020-09-15 14:00:00 29.8 8 Sudoeste 23 Sudoeste 0 -- -- 61
2020-09-15 13:00:00 28.6 12 Sur 23 Sudoeste 0 -- -- 65
2020-09-15 12:00:00 28.8 12 Sur 28 Sur 0 -- -- 63
2020-09-15 11:00:00 27.2 6 Sudoeste 12 Sudoeste 0 -- -- 62
2020-09-15 10:00:00 25.1 3 Este 5 Este 0 -- -- 69
2020-09-15 09:00:00 22.5 0 Calma 5 Oeste 0 -- -- 78
2020-09-15 08:00:00 21.1 2 Sudoeste 11 Oeste 0 -- -- 81
2020-09-15 07:00:00 20.7 6 Oeste 12 Oeste 0 -- -- 80
2020-09-15 06:00:00 20.4 0 Calma 5 Oeste 0 -- -- 86
2020-09-15 05:00:00 20.7 4 Oeste 6 Oeste 0 -- -- 81
2020-09-15 04:00:00 21.3 5 Oeste 12 Sudoeste 0 -- -- 76
2020-09-15 03:00:00 21.7 5 Oeste 17 Oeste 0 -- -- 79
2020-09-15 02:00:00 22.1 7 Oeste 18 Oeste 0 -- -- 90
2020-09-15 01:00:00 22.2 8 Oeste 13 Sudoeste 0 -- -- 89
2020-09-15 00:00:00 22.5 6 Oeste 12 Oeste 0 -- -- 88
2020-09-14 23:00:00 22.8 6 Oeste 14 Sudoeste 0 -- -- 89
2020-09-14 22:00:00 23.1 5 Sudoeste 11 Sudoeste 0 -- -- 88
2020-09-14 21:00:00 23.5 6 Sudoeste 15 Sudoeste 0 -- -- 86
2020-09-14 20:00:00 24.4 8 Sur 15 Sur 0 -- -- 81
2020-09-14 19:00:00 26.6 8 Sur 15 Sudoeste 0 -- -- 69
2020-09-14 18:00:00 28.7 8 Sur 13 Sur 0 -- -- 63
2020-09-14 17:00:00 29.2 9 Sur 12 Sur 0 -- -- 62
2020-09-14 16:00:00 28.8 8 Sur 15 Sur 0 -- -- 66
2020-09-14 15:00:00 29.5 9 Sur 14 Sudeste 0 -- -- 66
2020-09-14 14:00:00 28 7 Sudeste 14 Este 0 -- -- 72
2020-09-14 13:00:00 28.2 6 Este 14 Sudeste 0 -- -- 65
2020-09-14 12:00:00 27.5 6 Este 12 Sudeste 0 -- -- 66
2020-09-14 11:00:00 26.8 4 Sudeste 8 Sur 0 -- -- 62
2020-09-14 10:00:00 24.8 4 Este 6 Sudeste 0 -- -- 65
2020-09-14 09:00:00 22.9 2 Este 14 Noroeste 0 -- -- 74
2020-09-14 08:00:00 20.2 5 Noroeste 10 Noroeste 0 -- -- 79
2020-09-14 07:00:00 21.1 7 Noroeste 9 Noroeste 0 -- -- 84
2020-09-14 06:00:00 20.7 6 Noroeste 8 Noroeste 0 -- -- 82
2020-09-14 05:00:00 20.6 2 Norte 6 Noroeste 0 -- -- 81
2020-09-14 04:00:00 21.2 4 Norte 15 Noroeste 0 -- -- 73
2020-09-14 03:00:00 22.8 11 Noroeste 19 Noroeste 0 -- -- 69
2020-09-14 02:00:00 22 12 Noroeste 16 Noroeste 0 -- -- 78
2020-09-14 01:00:00 21.3 0 Calma 5 Noroeste 0 -- -- 84
2020-09-14 00:00:00 21.7 4 Noroeste 7 Noroeste 0 -- -- 76
2020-09-13 23:00:00 21.6 4 Norte 6 Nordeste 0 -- -- 77
2020-09-13 22:00:00 22.1 3 Nordeste 7 Nordeste 0 -- -- 77
2020-09-13 21:00:00 22.7 4 Este 9 Este 0 -- -- 74
2020-09-13 20:00:00 23.7 4 Este 10 Este 0 -- -- 68
2020-09-13 19:00:00 25.2 6 Este 10 Este 0 -- -- 62
2020-09-13 18:00:00 26 5 Sudeste 9 Sudeste 0 -- -- 60
2020-09-13 17:00:00 27.5 7 Sudeste 13 Este 0 -- -- 53
2020-09-13 16:00:00 28.2 6 Este 16 Nordeste 0 -- -- 50
2020-09-13 15:00:00 28.3 8 Este 23 Este 0 -- -- 50
2020-09-13 14:00:00 28.9 8 Nordeste 18 Este 0 -- -- 49
2020-09-13 13:00:00 29.5 8 Nordeste 16 Este 0 -- -- 48
2020-09-13 12:00:00 30.9 7 Sudeste 12 Norte 0 -- -- 40
2020-09-13 11:00:00 28.8 12 Norte 22 Norte 0 -- -- 40
2020-09-13 10:00:00 26.8 3 Nordeste 13 Norte 0 -- -- 49
2020-09-13 09:00:00 24 10 Norte 24 Noroeste 0 -- -- 56
2020-09-13 08:00:00 22.5 17 Norte 28 Norte 0 -- -- 59
2020-09-13 07:00:00 22.4 18 Norte 27 Norte 0 -- -- 60
2020-09-13 06:00:00 22.8 15 Noroeste 24 Noroeste 0 -- -- 58
2020-09-13 05:00:00 23.6 16 Noroeste 26 Noroeste 0 -- -- 56
2020-09-13 04:00:00 24 16 Noroeste 29 Noroeste 0 -- -- 54
2020-09-13 03:00:00 24.6 17 Noroeste 27 Noroeste 0 -- -- 51
2020-09-13 02:00:00 24.4 10 Noroeste 33 Noroeste 0 -- -- 52
2020-09-13 01:00:00 24.4 17 Noroeste 25 Noroeste 0 -- -- 53
2020-09-13 00:00:00 24.6 15 Noroeste 22 Noroeste 0 -- -- 53
2020-09-12 23:00:00 25.5 12 Noroeste 14 Noroeste 0 -- -- 47
2020-09-12 22:00:00 25.6 6 Noroeste 10 Noroeste 0 -- -- 47
2020-09-12 21:00:00 25.5 3 Oeste 10 Oeste 0 -- -- 49
2020-09-12 20:00:00 26.5 4 Oeste 10 Sudoeste 0 -- -- 49
2020-09-12 19:00:00 28.6 5 Sudoeste 14 Sudoeste 0 -- -- 48
2020-09-12 18:00:00 30.1 10 Sudoeste 18 Sur 0 -- -- 44
2020-09-12 17:00:00 31.5 7 Sur 14 Sudoeste 0 -- -- 48
2020-09-12 16:00:00 31.9 6 Sur 13 Sur 0 -- -- 48
2020-09-12 15:00:00 31.4 7 Sur 13 Sur 0 -- -- 55
2020-09-12 14:00:00 30.5 6 Sur 15 Sudeste 0 -- -- 46
2020-09-12 13:00:00 32.1 7 Sur 13 Sur 0 -- -- 43
2020-09-12 12:00:00 30.8 6 Nordeste 21 Noroeste 0 -- -- 37
2020-09-12 11:00:00 29.3 5 Este 12 Este 0 -- -- 40
2020-09-12 10:00:00 25.8 6 Norte 27 Noroeste 0 -- -- 57
2020-09-12 09:00:00 23.4 18 Noroeste 28 Noroeste 0 -- -- 58
2020-09-12 08:00:00 23.1 15 Noroeste 24 Noroeste 0 -- -- 57
2020-09-12 07:00:00 22.6 13 Noroeste 24 Noroeste 0 -- -- 61
2020-09-12 06:00:00 22.1 16 Noroeste 27 Noroeste 0 -- -- 64
2020-09-12 05:00:00 23 17 Noroeste 27 Noroeste 0 -- -- 61
2020-09-12 04:00:00 22.2 3 Norte 25 Noroeste 0 -- -- 67
2020-09-12 03:00:00 22.5 19 Noroeste 27 Noroeste 0 -- -- 65
2020-09-12 02:00:00 22.3 8 Noroeste 18 Noroeste 0 -- -- 68
2020-09-12 01:00:00 22.4 8 Noroeste 15 Noroeste 0 -- -- 71
2020-09-12 00:00:00 22.8 9 Noroeste 15 Oeste 0 -- -- 71
2020-09-11 23:00:00 22.2 5 Oeste 7 Oeste 0 -- -- 76
2020-09-11 22:00:00 22.5 0 Calma 6 Sur 0 -- -- 75
2020-09-11 21:00:00 23 0 Calma 11 Nordeste 0 -- -- 73
2020-09-11 20:00:00 23.7 5 Nordeste 18 Nordeste 0 -- -- 71
2020-09-11 19:00:00 25.3 6 Nordeste 25 Este 0 -- -- 65
2020-09-11 18:00:00 26.5 7 Este 28 Este 0 -- -- 60
2020-09-11 17:00:00 28 8 Este 17 Este 0 -- -- 55
2020-09-11 16:00:00 29.2 7 Sur 15 Sudeste 0 -- -- 56
2020-09-11 15:00:00 30.3 10 Sur 32 Este 0 -- -- 50
2020-09-11 14:00:00 30.4 13 Este 31 Este 0 -- -- 38
2020-09-11 13:00:00 28.3 3 Sudoeste 14 Oeste 0 -- -- 54
2020-09-11 12:00:00 25.1 7 Oeste 12 Sudoeste 0 -- -- 59
2020-09-11 11:00:00 23.8 6 Norte 11 Noroeste 0 -- -- 65
2020-09-11 10:00:00 24.9 7 Norte 17 Noroeste 0 -- -- 58
2020-09-11 09:00:00 22.1 11 Noroeste 21 Noroeste 0 -- -- 64
2020-09-11 08:00:00 21.4 15 Noroeste 26 Norte 0 -- -- 65
2020-09-11 07:00:00 21 8 Noroeste 18 Noroeste 0 -- -- 66
2020-09-11 06:00:00 21.2 5 Este 16 Noroeste 0 -- -- 76
2020-09-11 05:00:00 21.2 12 Noroeste 17 Noroeste 0 -- -- 70
2020-09-11 04:00:00 21 12 Noroeste 19 Noroeste 0 -- -- 73
2020-09-11 03:00:00 20.9 14 Noroeste 21 Noroeste 0 -- -- 78
2020-09-11 02:00:00 20.1 16 Noroeste 23 Noroeste 0.2 -- -- 88
2020-09-11 01:00:00 21.6 5 Nordeste 19 Este 0 -- -- 76
2020-09-11 00:00:00 21.7 11 Noroeste 18 Noroeste 0 -- -- 76
2020-09-10 23:00:00 21.8 11 Noroeste 18 Noroeste 0 -- -- 76
2020-09-10 22:00:00 22.2 3 Norte 10 Noroeste 0 -- -- 77
2020-09-10 21:00:00 22.4 3 Norte 6 Oeste 0 -- -- 79
2020-09-10 20:00:00 23 3 Sudoeste 16 Sudoeste 0 -- -- 75
2020-09-10 19:00:00 24.8 4 Sur 10 Sur 0 -- -- 69
2020-09-10 18:00:00 26.5 5 Sudeste 9 Sur 0.2 -- -- 64
2020-09-10 17:00:00 25.9 6 Sur 17 Sudoeste 0 -- -- 68
2020-09-10 16:00:00 24.3 8 Sudoeste 22 Sur 0.4 -- -- 74
2020-09-10 15:00:00 26.9 8 Sur 26 Sudoeste 0 -- -- 63
2020-09-10 14:00:00 24.7 13 Sudoeste 23 Sudoeste 0.6 -- -- 78
2020-09-10 13:00:00 28.2 9 Sur 24 Sur 0 -- -- 54
2020-09-10 12:00:00 27.5 12 Sur 19 Sur 0 -- -- 56
2020-09-10 11:00:00 25.4 6 Sur 13 Noroeste 0 -- -- 66
2020-09-10 10:00:00 22.1 4 Norte 21 Noroeste 0 -- -- 69
2020-09-10 09:00:00 19.8 14 Noroeste 24 Noroeste 0 -- -- 76
2020-09-10 08:00:00 18.4 13 Noroeste 22 Noroeste 0 -- -- 84
2020-09-10 07:00:00 18.1 14 Noroeste 20 Noroeste 0 -- -- 86
2020-09-10 06:00:00 18.2 14 Noroeste 21 Noroeste 0 -- -- 85
2020-09-10 05:00:00 18.5 15 Norte 20 Noroeste 0 -- -- 85
2020-09-10 04:00:00 18.4 12 Norte 19 Norte 0 -- -- 87
2020-09-10 03:00:00 18.4 13 Norte 20 Norte 0 -- -- 88
2020-09-10 02:00:00 19 9 Noroeste 19 Norte 0 -- -- 87
2020-09-10 01:00:00 19 10 Norte 18 Noroeste 0 -- -- 90
2020-09-10 00:00:00 19.6 8 Norte 14 Noroeste 0 -- -- 85
2020-09-09 23:00:00 19.8 9 Norte 14 Norte 0 -- -- 84
2020-09-09 22:00:00 20.1 10 Norte 13 Norte 0 -- -- 84
2020-09-09 21:00:00 20.4 8 Noroeste 15 Noroeste 0 -- -- 87
2020-09-09 20:00:00 21.2 9 Este 28 Este 0 -- -- 82
2020-09-09 19:00:00 21.5 16 Este 31 Este 0 -- -- 83
2020-09-09 18:00:00 22.6 19 Este 30 Este 0 -- -- 80
2020-09-09 17:00:00 24.4 11 Este 36 Este 0 -- -- 73
2020-09-09 16:00:00 23.9 22 Este 37 Este 0 -- -- 71
2020-09-09 15:00:00 24.3 21 Este 32 Este 0 -- -- 72
2020-09-09 14:00:00 26.7 6 Sudeste 26 Este 0 -- -- 62
2020-09-09 13:00:00 24.8 17 Este 26 Este 0 -- -- 66
2020-09-09 12:00:00 24.8 6 Nordeste 19 Este 0 -- -- 65
2020-09-09 11:00:00 24.1 8 Nordeste 26 Este 0 -- -- 66
2020-09-09 10:00:00 21.9 15 Norte 31 Norte 0 -- -- 77
2020-09-09 09:00:00 20.2 17 Norte 27 Norte 0 -- -- 81
2020-09-09 08:00:00 19.8 12 Norte 23 Noroeste 0 -- -- 82
2020-09-09 07:00:00 19.4 16 Norte 25 Norte 0 -- -- 82
2020-09-09 06:00:00 19.4 15 Norte 35 Norte 0 -- -- 82
2020-09-09 05:00:00 19.1 17 Norte 31 Norte 0 -- -- 82
2020-09-09 04:00:00 18.6 5 Norte 18 Noroeste 0 -- -- 86
2020-09-09 03:00:00 18.5 8 Norte 15 Noroeste 0.8 -- -- 87
2020-09-09 02:00:00 19.8 10 Norte 17 Noroeste 0 -- -- 74
2020-09-09 01:00:00 20.5 14 Norte 30 Norte 0 -- -- 66
2020-09-09 00:00:00 20.5 21 Norte 29 Norte 0 -- -- 64
2020-09-08 23:00:00 20 15 Norte 24 Norte 0 -- -- 67
2020-09-08 22:00:00 18.9 13 Norte 33 Norte 0.4 -- -- 76
2020-09-08 21:00:00 19.8 21 Norte 34 Norte 0 -- -- 68
2020-09-08 20:00:00 19.8 23 Norte 34 Norte 0 -- -- 71
2020-09-08 19:00:00 19.6 12 Norte 41 Norte 0 -- -- 74
2020-09-08 18:00:00 19.8 20 Norte 41 Norte 0 -- -- 68
2020-09-08 17:00:00 22 8 Nordeste 26 Norte 0 -- -- 59
2020-09-08 16:00:00 23.4 18 Nordeste 40 Nordeste 0 -- -- 52
2020-09-08 15:00:00 25.8 22 Nordeste 48 Este 0 -- -- 41
2020-09-08 14:00:00 25.8 21 Nordeste 45 Este 0 -- -- 40
2020-09-08 13:00:00 25.7 21 Nordeste 41 Nordeste 0 -- -- 39
2020-09-08 12:00:00 25.2 14 Nordeste 35 Nordeste 0 -- -- 39
2020-09-08 11:00:00 22.9 11 Nordeste 37 Norte 0 -- -- 41
2020-09-08 10:00:00 21.5 11 Norte 30 Este 0 -- -- 46
2020-09-08 09:00:00 20.9 9 Norte 27 Norte 0 -- -- 47
2020-09-08 08:00:00 18.7 12 Norte 27 Norte 0 -- -- 50
2020-09-08 07:00:00 16 4 Noroeste 20 Noroeste 0 -- -- 68
2020-09-08 06:00:00 16.9 15 Noroeste 22 Oeste 0 -- -- 64
2020-09-08 05:00:00 16.8 12 Noroeste 21 Noroeste 0 -- -- 64
2020-09-08 04:00:00 16.3 12 Noroeste 21 Noroeste 0 -- -- 68
2020-09-08 03:00:00 16.4 16 Noroeste 24 Oeste 0 -- -- 74
2020-09-08 02:00:00 16.8 9 Noroeste 18 Noroeste 0 -- -- 72
2020-09-08 01:00:00 17.1 13 Norte 21 Noroeste 0 -- -- 72
2020-09-08 00:00:00 17.5 12 Noroeste 28 Sudoeste 0 -- -- 73
2020-09-07 23:00:00 17.8 6 Oeste 25 Noroeste 0 -- -- 73
2020-09-07 22:00:00 18 12 Noroeste 28 Noroeste 0 -- -- 75
2020-09-07 21:00:00 18.2 13 Noroeste 19 Noroeste 0 -- -- 77
2020-09-07 20:00:00 19.7 6 Noroeste 18 Noroeste 0 -- -- 79
2020-09-07 19:00:00 21.1 9 Oeste 17 Oeste 0 -- -- 71
2020-09-07 18:00:00 21.3 8 Sudoeste 21 Sudoeste 0 -- -- 68
2020-09-07 17:00:00 23.4 13 Sudoeste 21 Sudoeste 0 -- -- 57
2020-09-07 16:00:00 25.9 10 Sur 24 Sudoeste 0 -- -- 56
2020-09-07 15:00:00 25.8 13 Sur 21 Sudoeste 0 -- -- 55
2020-09-07 14:00:00 23.6 8 Sur 17 Sudoeste 0 -- -- 60
2020-09-07 13:00:00 22.3 9 Sur 15 Sudeste 0 -- -- 65
2020-09-07 12:00:00 21.1 7 Este 15 Nordeste 0 -- -- 55
2020-09-07 11:00:00 20.6 5 Sur 11 Norte 0 -- -- 72
2020-09-07 10:00:00 18.6 9 Oeste 14 Oeste 0 -- -- 78
2020-09-07 09:00:00 17.1 9 Oeste 18 Oeste 0 -- -- 82
2020-09-07 08:00:00 16.5 4 Noroeste 12 Oeste 0 -- -- 73
2020-09-07 07:00:00 16.7 3 Oeste 18 Noroeste 0 -- -- 73
2020-09-07 06:00:00 16 4 Noroeste 17 Norte 0.2 -- -- 77
2020-09-07 05:00:00 16.7 6 Sudeste 33 Nordeste 0.2 -- -- 76
2020-09-07 04:00:00 16.5 9 Norte 21 Este 0.4 -- -- 80
2020-09-07 03:00:00 17.3 6 Norte 23 Noroeste 0 -- -- 83
2020-09-07 02:00:00 16.6 14 Norte 38 Norte 2 -- -- 88
2020-09-07 01:00:00 18.4 21 Norte 38 Norte 2 -- -- 76
2020-09-07 00:00:00 18.6 21 Norte 39 Norte 0 -- -- 78
2020-09-06 23:00:00 19.7 21 Norte 34 Norte 0 -- -- 71
2020-09-06 22:00:00 19.9 22 Norte 30 Norte 0 -- -- 72
2020-09-06 21:00:00 20.1 18 Norte 27 Norte 0.2 -- -- 74
2020-09-06 20:00:00 23.5 10 Nordeste 20 Nordeste 0 -- -- 64
2020-09-06 19:00:00 24.2 5 Este 14 Este 0 -- -- 68
2020-09-06 18:00:00 25.5 4 Este 15 Sudeste 0 -- -- 65
2020-09-06 17:00:00 26.7 3 Sur 14 Sudeste 0 -- -- 63
2020-09-06 16:00:00 27.7 5 Este 15 Sur 0 -- -- 59
2020-09-06 15:00:00 28.7 5 Sudeste 15 Este 0 -- -- 59
2020-09-06 14:00:00 28.3 6 Sudeste 14 Este 0 -- -- 61
2020-09-06 13:00:00 26.6 7 Sur 15 Sudeste 0 -- -- 69
2020-09-06 12:00:00 28.4 6 Sur 11 Sur 0 -- -- 64
2020-09-06 11:00:00 26.8 3 Sudoeste 10 Norte 0 -- -- 67
2020-09-06 10:00:00 24.6 6 Norte 12 Norte 0 -- -- 74
2020-09-06 09:00:00 22.8 8 Norte 15 Norte 0 -- -- 80
2020-09-06 08:00:00 21.4 8 Norte 12 Noroeste 0 -- -- 87
2020-09-06 07:00:00 21.8 3 Este 11 Este 0 -- -- 87
2020-09-06 06:00:00 21.5 3 Nordeste 5 Nordeste 0 -- -- 87
2020-09-06 05:00:00 21.6 2 Noroeste 6 Oeste 0 -- -- 85
2020-09-06 04:00:00 21.5 3 Noroeste 6 Noroeste 0 -- -- 83
2020-09-06 03:00:00 21.6 2 Sur 3 Sur 0 -- -- 85
2020-09-06 02:00:00 21.8 0 Calma 4 Norte 0 -- -- 82
2020-09-06 01:00:00 22.4 0 Calma 7 Norte 0 -- -- 80
2020-09-06 00:00:00 22.7 4 Norte 12 Sudoeste 0 -- -- 79
2020-09-05 23:00:00 23.1 5 Oeste 14 Sudoeste 0 -- -- 78
2020-09-05 22:00:00 23.4 8 Sudoeste 17 Sudoeste 0 -- -- 81
2020-09-05 21:00:00 23.6 7 Sudoeste 18 Sudoeste 0 -- -- 79
2020-09-05 20:00:00 24.3 9 Sudoeste 15 Sudoeste 0 -- -- 76
2020-09-05 19:00:00 25.8 6 Sur 13 Sur 0 -- -- 72
2020-09-05 18:00:00 25.4 8 Este 19 Este 0 -- -- 77
2020-09-05 17:00:00 25.6 10 Este 19 Este 0 -- -- 76
2020-09-05 16:00:00 25.5 14 Este 20 Este 0 -- -- 74
2020-09-05 15:00:00 25.7 14 Este 23 Este 0 -- -- 73
2020-09-05 14:00:00 25.5 16 Este 26 Este 0 -- -- 74
2020-09-05 13:00:00 26.3 15 Este 24 Este 0 -- -- 66
2020-09-05 12:00:00 27.2 11 Este 20 Este 0 -- -- 65
2020-09-05 11:00:00 24 9 Nordeste 17 Norte 0 -- -- 80
2020-09-05 10:00:00 22.2 11 Norte 18 Noroeste 0 -- -- 87
2020-09-05 09:00:00 21.7 11 Norte 19 Noroeste 0 -- -- 89
2020-09-05 08:00:00 21.6 9 Norte 13 Norte 0 -- -- 88
2020-09-05 07:00:00 21.5 7 Norte 10 Noroeste 0 -- -- 89
2020-09-05 06:00:00 21.4 6 Noroeste 13 Noroeste 0 -- -- 90
2020-09-05 05:00:00 21.5 4 Noroeste 8 Noroeste 0 -- -- 89
2020-09-05 04:00:00 21.9 3 Norte 6 Norte 0 -- -- 87
2020-09-05 03:00:00 21.9 3 Norte 4 Noroeste 0 -- -- 86
2020-09-05 02:00:00 22 0 Calma 4 Norte 0 -- -- 86
2020-09-05 01:00:00 22 0 Calma 2 Norte 0 -- -- 85
2020-09-05 00:00:00 22.4 0 Calma 4 Norte 0 -- -- 83
2020-09-04 23:00:00 22.9 2 Norte 8 Este 0 -- -- 81
2020-09-04 22:00:00 23.5 3 Nordeste 10 Este 0 -- -- 83
2020-09-04 21:00:00 23.8 3 Este 8 Sur 0 -- -- 82
2020-09-04 20:00:00 25 4 Sur 14 Sur 0 -- -- 76
2020-09-04 19:00:00 26.6 9 Sudeste 21 Sudeste 0 -- -- 70
2020-09-04 18:00:00 28.2 12 Sur 19 Sur 0 -- -- 66
2020-09-04 17:00:00 29.2 8 Sur 16 Sudeste 0 -- -- 59
2020-09-04 16:00:00 29.5 6 Sur 14 Sudeste 0 -- -- 61
2020-09-04 15:00:00 27.7 8 Este 17 Sudeste 0 -- -- 70
2020-09-04 14:00:00 28.1 8 Este 16 Este 0 -- -- 66
2020-09-04 13:00:00 27.2 10 Este 16 Este 0 -- -- 67
2020-09-04 12:00:00 27.2 6 Este 18 Este 0 -- -- 65
2020-09-04 11:00:00 26.6 7 Este 12 Nordeste 0 -- -- 69
2020-09-04 10:00:00 25.4 7 Este 15 Norte 0 -- -- 67
2020-09-04 09:00:00 22.2 12 Norte 19 Norte 0 -- -- 74
2020-09-04 08:00:00 20.9 12 Noroeste 17 Noroeste 0 -- -- 79
2020-09-04 07:00:00 20.4 8 Noroeste 11 Noroeste 0 -- -- 83
2020-09-04 06:00:00 20.6 6 Norte 13 Nordeste 0 -- -- 83
2020-09-04 05:00:00 21 8 Nordeste 14 Nordeste 0 -- -- 82
2020-09-04 04:00:00 21.6 9 Norte 26 Noroeste 0 -- -- 74
2020-09-04 03:00:00 21.3 6 Oeste 19 Noroeste 0 -- -- 80
2020-09-04 02:00:00 22 12 Noroeste 20 Noroeste 0 -- -- 78
2020-09-04 01:00:00 21.8 10 Noroeste 15 Noroeste 0 -- -- 78
2020-09-04 00:00:00 22.6 8 Noroeste 15 Noroeste 0 -- -- 75
2020-09-03 23:00:00 23 8 Oeste 17 Sudoeste 0 -- -- 74
2020-09-03 22:00:00 22.9 6 Oeste 16 Oeste 0 -- -- 73
2020-09-03 21:00:00 23 7 Sudoeste 18 Sudoeste 0 -- -- 72
2020-09-03 20:00:00 23.8 10 Sur 22 Sudoeste 0 -- -- 67
2020-09-03 19:00:00 26 9 Sur 16 Sur 0 -- -- 56
2020-09-03 18:00:00 28 9 Sur 17 Sur 0 -- -- 51
2020-09-03 17:00:00 29.2 9 Sur 18 Sur 0 -- -- 47
2020-09-03 16:00:00 29 9 Sur 15 Sur 0 -- -- 47
2020-09-03 15:00:00 29.8 8 Sur 15 Sur 0 -- -- 43
2020-09-03 14:00:00 29.3 9 Sur 15 Sudeste 0 -- -- 47
2020-09-03 13:00:00 28.1 8 Sudeste 14 Sudeste 0 -- -- 49
2020-09-03 12:00:00 26.6 7 Sudeste 10 Sudeste 0 -- -- 50
2020-09-03 11:00:00 25.2 5 Sudeste 10 Noroeste 0 -- -- 56
2020-09-03 10:00:00 22.8 5 Noroeste 12 Norte 0 -- -- 66
2020-09-03 09:00:00 21.5 9 Norte 16 Noroeste 0 -- -- 65
2020-09-03 08:00:00 20.4 10 Noroeste 22 Noroeste 0 -- -- 68
2020-09-03 07:00:00 20.2 13 Noroeste 20 Noroeste 0 -- -- 68
2020-09-03 06:00:00 20.3 12 Noroeste 19 Noroeste 0 -- -- 68
2020-09-03 05:00:00 20.6 10 Noroeste 16 Noroeste 0 -- -- 67
2020-09-03 04:00:00 20.6 11 Noroeste 17 Noroeste 0 -- -- 76
2020-09-03 03:00:00 20.8 5 Noroeste 12 Nordeste 0 -- -- 53
2020-09-03 02:00:00 21.6 8 Nordeste 15 Nordeste 0 -- -- 64
2020-09-03 01:00:00 22.4 2 Norte 9 Nordeste 0 -- -- 73
2020-09-03 00:00:00 22.9 6 Oeste 13 Sudoeste 0 -- -- 70
2020-09-02 23:00:00 23 9 Sudoeste 21 Sudoeste 0 -- -- 69
2020-09-02 22:00:00 23.3 9 Sudoeste 30 Sudoeste 0 -- -- 68
2020-09-02 21:00:00 23.3 19 Sur 37 Sudoeste 0 -- -- 69
2020-09-02 20:00:00 23.7 18 Sur 35 Sudoeste 0 -- -- 68
2020-09-02 19:00:00 24.8 18 Sur 45 Sur 0 -- -- 64
2020-09-02 18:00:00 25.6 26 Sur 46 Sudoeste 0 -- -- 59
2020-09-02 17:00:00 26.5 25 Sur 46 Sudoeste 0 -- -- 53
2020-09-02 16:00:00 26.3 28 Sur 50 Sudoeste 0 -- -- 55
2020-09-02 15:00:00 27 22 Sur 41 Sur 0 -- -- 56
2020-09-02 14:00:00 26.2 22 Sur 44 Sur 0 -- -- 53
2020-09-02 13:00:00 26.4 24 Sur 39 Sudoeste 0 -- -- 53
2020-09-02 12:00:00 26 17 Sur 31 Sudoeste 0 -- -- 54
2020-09-02 11:00:00 25.2 6 Sur 14 Sudoeste 0 -- -- 58
2020-09-02 10:00:00 22 5 Norte 17 Noroeste 0 -- -- 67
2020-09-02 09:00:00 19.6 12 Noroeste 19 Noroeste 0 -- -- 69
2020-09-02 08:00:00 17.4 14 Noroeste 20 Noroeste 0 -- -- 81
2020-09-02 07:00:00 17.7 10 Noroeste 21 Norte 0 -- -- 77
2020-09-02 06:00:00 17.6 16 Norte 22 Norte 0 -- -- 80
2020-09-02 05:00:00 18.4 11 Noroeste 16 Noroeste 0 -- -- 73
2020-09-02 04:00:00 18.9 10 Noroeste 16 Norte 0 -- -- 71
2020-09-02 03:00:00 18.8 8 Noroeste 10 Noroeste 0 -- -- 75
2020-09-02 02:00:00 18.7 7 Noroeste 12 Norte 0 -- -- 74
2020-09-02 01:00:00 18.6 10 Norte 31 Noroeste 0 -- -- 77
2020-09-02 00:00:00 17.6 18 Norte 30 Noroeste 0.6 -- -- 84
2020-09-01 23:00:00 17.4 23 Norte 39 Norte 2 -- -- 86
2020-09-01 22:00:00 19.3 14 Norte 36 Norte 0.4 -- -- 76
2020-09-01 21:00:00 22.6 6 Este 11 Sudeste 0 -- -- 73
2020-09-01 20:00:00 23.2 6 Sudeste 14 Sudeste 0 -- -- 72
2020-09-01 19:00:00 24.4 8 Sur 14 Sur 0 -- -- 68
2020-09-01 18:00:00 24.8 7 Sur 17 Sur 0 -- -- 68
2020-09-01 17:00:00 24.3 9 Sur 16 Sur 0 -- -- 66
2020-09-01 16:00:00 25.5 8 Sur 17 Sur 0 -- -- 62
2020-09-01 15:00:00 26.1 9 Sur 19 Sudeste 0 -- -- 58
2020-09-01 14:00:00 25.6 6 Este 19 Este 0 -- -- 59
2020-09-01 13:00:00 24.1 11 Este 22 Este 0 -- -- 63
2020-09-01 12:00:00 23.3 12 Este 21 Este 0 -- -- 61
2020-09-01 11:00:00 22.9 10 Este 19 Este 0 -- -- 57
2020-09-01 10:00:00 20.7 9 Norte 19 Norte 0 -- -- 61
2020-09-01 09:00:00 18.5 12 Norte 14 Norte 0 -- -- 68
2020-09-01 08:00:00 18.3 10 Norte 14 Noroeste 0 -- -- 66
2020-09-01 07:00:00 18.5 10 Noroeste 17 Noroeste 0 -- -- 62
2020-09-01 06:00:00 18.8 10 Noroeste 24 Noroeste 0 -- -- 62
2020-09-01 05:00:00 19.1 8 Norte 17 Noroeste 0 -- -- 59
2020-09-01 04:00:00 19.7 10 Noroeste 18 Noroeste 0 -- -- 58
2020-09-01 03:00:00 19.6 10 Noroeste 18 Noroeste 0 -- -- 61
2020-09-01 02:00:00 19.9 10 Noroeste 15 Noroeste 0 -- -- 62
2020-09-01 01:00:00 20 8 Norte 17 Nordeste 0 -- -- 63
2020-09-01 00:00:00 20.8 11 Norte 22 Norte 0 -- -- 67
2020-08-31 23:00:00 21 11 Norte 15 Norte 0 -- -- 66
2020-08-31 22:00:00 21.7 9 Noroeste 13 Oeste 0 -- -- 64
2020-08-31 21:00:00 22.3 6 Noroeste 22 Sudoeste 0 -- -- 62
2020-08-31 20:00:00 23.1 11 Sudoeste 41 Sudoeste 0 -- -- 60
2020-08-31 19:00:00 24.3 17 Sudoeste 38 Sur 0 -- -- 57
2020-08-31 18:00:00 24.7 18 Sudoeste 43 Sudoeste 0 -- -- 55
2020-08-31 17:00:00 25.2 27 Sur 49 Sur 0 -- -- 58
2020-08-31 16:00:00 25.6 30 Sur 48 Sudoeste 0 -- -- 55
2020-08-31 15:00:00 25.4 24 Sur 48 Sudoeste 0 -- -- 56
2020-08-31 14:00:00 26.2 11 Sur 31 Sur 0 -- -- 49
2020-08-31 13:00:00 24.8 6 Sudeste 13 Sur 0 -- -- 52
2020-08-31 12:00:00 24.4 7 Sur 10 Sudeste 0 -- -- 53
2020-08-31 11:00:00 22.5 4 Este 12 Norte 0 -- -- 54
2020-08-31 10:00:00 19.2 8 Norte 21 Noroeste 0 -- -- 70
2020-08-31 09:00:00 17.5 14 Noroeste 21 Norte 0 -- -- 69
2020-08-31 08:00:00 15.2 9 Norte 22 Noroeste 0 -- -- 80
2020-08-31 07:00:00 14.9 15 Noroeste 23 Noroeste 0 -- -- 81
2020-08-31 06:00:00 15.2 16 Norte 26 Noroeste 0 -- -- 81
2020-08-31 05:00:00 15.5 18 Noroeste 31 Norte 0 -- -- 80
2020-08-31 04:00:00 15.2 17 Noroeste 25 Noroeste 0 -- -- 87
2020-08-31 03:00:00 15.7 14 Noroeste 25 Noroeste 0 -- -- 88
2020-08-31 02:00:00 16 18 Norte 26 Norte 0.2 -- -- 87
2020-08-31 01:00:00 16.4 9 Norte 25 Noroeste 0 -- -- 82
2020-08-31 00:00:00 15.8 17 Noroeste 30 Noroeste 0 -- -- 90
2020-08-30 23:00:00 15.8 15 Norte 29 Norte 0.2 -- -- 90
2020-08-30 22:00:00 15.7 19 Noroeste 28 Norte 0.8 -- -- 90
2020-08-30 21:00:00 16.2 15 Noroeste 26 Noroeste 2 -- -- 87
2020-08-30 20:00:00 16.3 10 Nordeste 39 Nordeste 0.4 -- -- 82
2020-08-30 19:00:00 19.4 16 Noroeste 31 Noroeste 0 -- -- 64
2020-08-30 18:00:00 24.2 10 Sudeste 24 Sur 0 -- -- 59
2020-08-30 17:00:00 26.9 12 Sur 23 Sur 0 -- -- 56
2020-08-30 16:00:00 27.4 13 Sur 28 Sudoeste 0 -- -- 54
2020-08-30 15:00:00 27.2 16 Sur 29 Sudoeste 0 -- -- 53
2020-08-30 14:00:00 27.1 11 Sur 24 Sur 0 -- -- 53
2020-08-30 13:00:00 26.1 8 Sur 21 Sur 0 -- -- 52
2020-08-30 12:00:00 25.3 8 Sur 12 Sur 0 -- -- 53
2020-08-30 11:00:00 21.7 7 Noroeste 18 Oeste 0 -- -- 58
2020-08-30 10:00:00 19.3 11 Noroeste 22 Noroeste 0 -- -- 62
2020-08-30 09:00:00 17.2 13 Noroeste 23 Noroeste 0 -- -- 67
2020-08-30 08:00:00 15.4 17 Noroeste 31 Noroeste 0 -- -- 73
2020-08-30 07:00:00 14.5 14 Noroeste 23 Norte 0 -- -- 78
2020-08-30 06:00:00 15.2 10 Noroeste 30 Noroeste 0 -- -- 75
2020-08-30 05:00:00 15.6 22 Noroeste 31 Norte 0 -- -- 76
2020-08-30 04:00:00 15.6 11 Noroeste 35 Norte 0 -- -- 76
2020-08-30 03:00:00 15.9 15 Norte 27 Noroeste 0 -- -- 82
2020-08-30 02:00:00 17.4 9 Norte 36 Noroeste 0 -- -- 77
2020-08-30 01:00:00 17.4 14 Noroeste 23 Noroeste 0 -- -- 77
2020-08-30 00:00:00 17.3 14 Noroeste 22 Noroeste 0 -- -- 80
2020-08-29 23:00:00 17.3 13 Noroeste 20 Noroeste 0 -- -- 84
2020-08-29 22:00:00 17.4 11 Norte 18 Noroeste 0 -- -- 89
2020-08-29 21:00:00 17.8 14 Noroeste 23 Norte 0 -- -- 91
2020-08-29 20:00:00 18.1 9 Noroeste 19 Noroeste 0.2 -- -- 90
2020-08-29 19:00:00 19.4 6 Este 13 Sur 1.2 -- -- 81
2020-08-29 18:00:00 21.7 9 Sur 15 Sur 0 -- -- 70
2020-08-29 17:00:00 21.7 8 Este 21 Nordeste 0 -- -- 65
2020-08-29 16:00:00 22.7 8 Este 17 Este 0 -- -- 58
2020-08-29 15:00:00 21.3 6 Sur 24 Norte 0 -- -- 70
2020-08-29 14:00:00 19 14 Norte 29 Norte 0 -- -- 73
2020-08-29 13:00:00 17 5 Sur 27 Norte 0.2 -- -- 87
2020-08-29 12:00:00 17.3 13 Norte 26 Norte 0 -- -- 85
2020-08-29 11:00:00 15.6 8 Norte 26 Norte 0.2 -- -- 91
2020-08-29 10:00:00 15.2 12 Norte 43 Noroeste 0.2 -- -- 88
2020-08-29 09:00:00 15 17 Norte 40 Norte 0.4 -- -- 91
2020-08-29 08:00:00 14.7 21 Norte 41 Norte 5.2 -- -- 91
2020-08-29 07:00:00 15.3 15 Noroeste 37 Norte 1.8 -- -- 87
2020-08-29 06:00:00 15.7 14 Norte 36 Noroeste 1.4 -- -- 90
2020-08-29 05:00:00 16.3 11 Norte 27 Este 0.2 -- -- 90
2020-08-29 04:00:00 16.6 15 Nordeste 23 Nordeste 1.8 -- -- 93
2020-08-29 03:00:00 16.9 17 Norte 28 Norte 1.8 -- -- 89
2020-08-29 02:00:00 18.3 16 Norte 28 Norte 0.2 -- -- 78
2020-08-29 01:00:00 20 17 Norte 33 Noroeste 0 -- -- 64
2020-08-29 00:00:00 20.4 10 Norte 30 Nordeste 0 -- -- 66
2020-08-28 23:00:00 21.7 17 Nordeste 37 Nordeste 0 -- -- 62
2020-08-28 22:00:00 21.9 11 Norte 27 Norte 0 -- -- 62
2020-08-28 21:00:00 24.4 9 Nordeste 30 Este 0 -- -- 63
2020-08-28 20:00:00 25 23 Este 49 Este 0 -- -- 69
2020-08-28 19:00:00 25.4 29 Este 41 Este 0 -- -- 70
2020-08-28 18:00:00 26.5 27 Este 36 Este 0 -- -- 72
2020-08-28 17:00:00 29 4 Este 19 Sur 0 -- -- 68
2020-08-28 16:00:00 31.7 12 Sur 21 Sudeste 0 -- -- 63
2020-08-28 15:00:00 33 10 Sur 15 Sur 0 -- -- 57
2020-08-28 14:00:00 32.7 9 Sur 15 Sur 0 -- -- 58
2020-08-28 13:00:00 33.1 9 Sur 15 Sur 0 -- -- 59
2020-08-28 12:00:00 31.6 8 Sur 13 Sur 0 -- -- 63
2020-08-28 11:00:00 30.6 8 Sur 10 Sur 0 -- -- 65
2020-08-28 10:00:00 28.5 5 Sur 12 Norte 0 -- -- 73
2020-08-28 09:00:00 25.6 8 Noroeste 13 Noroeste 0 -- -- 82
2020-08-28 08:00:00 24.3 6 Noroeste 12 Oeste 0 -- -- 88
2020-08-28 07:00:00 23.8 6 Oeste 10 Oeste 0 -- -- 89
2020-08-28 06:00:00 23.9 4 Oeste 9 Noroeste 0 -- -- 89
2020-08-28 05:00:00 24.2 3 Oeste 12 Noroeste 0 -- -- 87
2020-08-28 04:00:00 24.5 8 Noroeste 12 Noroeste 0 -- -- 87
2020-08-28 03:00:00 24.8 4 Oeste 10 Noroeste 0 -- -- 87
2020-08-28 02:00:00 24.9 8 Noroeste 10 Noroeste 0 -- -- 86
2020-08-28 01:00:00 25.4 2 Oeste 12 Noroeste 0 -- -- 86
2020-08-28 00:00:00 25.7 4 Oeste 14 Sudoeste 0 -- -- 86
2020-08-27 23:00:00 25.9 9 Sur 22 Sudoeste 0 -- -- 86
2020-08-27 22:00:00 26 8 Sudoeste 26 Sudoeste 0 -- -- 85
2020-08-27 21:00:00 26.1 18 Sudoeste 31 Sur 0 -- -- 82
2020-08-27 20:00:00 27.2 16 Sudoeste 27 Sudoeste 0 -- -- 74
2020-08-27 19:00:00 29.3 9 Sur 21 Sur 0 -- -- 66
2020-08-27 18:00:00 30.8 9 Sur 22 Sur 0 -- -- 62
2020-08-27 17:00:00 31.4 12 Sur 24 Sur 0 -- -- 59
2020-08-27 16:00:00 32.7 11 Sur 24 Sudoeste 0 -- -- 57
2020-08-27 15:00:00 32.9 10 Sur 23 Sur 0 -- -- 57
2020-08-27 14:00:00 32.3 9 Sur 18 Sur 0 -- -- 58
2020-08-27 13:00:00 32.4 9 Sur 16 Oeste 0 -- -- 57
2020-08-27 12:00:00 32.2 8 Sur 13 Sur 0 -- -- 64
2020-08-27 11:00:00 29.8 6 Sur 9 Sudeste 0 -- -- 70
2020-08-27 10:00:00 28.4 5 Sur 7 Sur 0 -- -- 74
2020-08-27 09:00:00 26.4 2 Este 6 Norte 0 -- -- 82
2020-08-27 08:00:00 24.3 5 Noroeste 11 Noroeste 0 -- -- 87
2020-08-27 07:00:00 23.8 6 Noroeste 11 Noroeste 0 -- -- 88
2020-08-27 06:00:00 23.8 7 Noroeste 13 Noroeste 0 -- -- 89
2020-08-27 05:00:00 24 0 Calma 13 Noroeste 0 -- -- 88
2020-08-27 04:00:00 24.2 9 Noroeste 18 Noroeste 0 -- -- 88
2020-08-27 03:00:00 24.5 4 Oeste 12 Noroeste 0 -- -- 90
2020-08-27 02:00:00 24.9 10 Noroeste 13 Noroeste 0 -- -- 88
2020-08-27 01:00:00 25.1 6 Noroeste 13 Noroeste 0 -- -- 88
2020-08-27 00:00:00 25.4 4 Oeste 9 Sudoeste 0 -- -- 86
2020-08-26 23:00:00 25.9 2 Sudoeste 12 Sudoeste 0 -- -- 87
2020-08-26 22:00:00 26.3 5 Sur 20 Sudoeste 0 -- -- 86
2020-08-26 21:00:00 26.5 12 Sudoeste 29 Sudoeste 0 -- -- 85
2020-08-26 20:00:00 27.3 17 Sur 31 Sudoeste 0 -- -- 80
2020-08-26 19:00:00 29.1 16 Sur 29 Sudoeste 0 -- -- 71
2020-08-26 18:00:00 31 9 Sur 19 Sur 0 -- -- 63
2020-08-26 17:00:00 31 11 Sur 20 Sudeste 0 -- -- 59
2020-08-26 16:00:00 31.9 13 Sudeste 21 Sudeste 0 -- -- 55
2020-08-26 15:00:00 31.8 9 Sur 19 Sudeste 0 -- -- 53
2020-08-26 14:00:00 32.3 5 Sur 17 Sudeste 0 -- -- 52
2020-08-26 13:00:00 31.9 8 Sudeste 18 Sudeste 0 -- -- 53
2020-08-26 12:00:00 31.1 7 Este 17 Sudeste 0 -- -- 56
2020-08-26 11:00:00 29.8 7 Nordeste 10 Este 0 -- -- 70
2020-08-26 10:00:00 28.7 5 Este 8 Sudeste 0 -- -- 69
2020-08-26 09:00:00 26.8 2 Este 6 Noroeste 0 -- -- 75
2020-08-26 08:00:00 24.1 4 Noroeste 7 Norte 0 -- -- 84
2020-08-26 07:00:00 23.9 0 Calma 11 Noroeste 0 -- -- 85
2020-08-26 06:00:00 24.2 9 Noroeste 15 Noroeste 0 -- -- 85
2020-08-26 05:00:00 24.1 5 Norte 9 Norte 0 -- -- 88
2020-08-26 04:00:00 24.8 4 Noroeste 10 Noroeste 0 -- -- 86
2020-08-26 03:00:00 25.1 3 Noroeste 13 Noroeste 0 -- -- 86
2020-08-26 02:00:00 25.4 2 Oeste 8 Oeste 0 -- -- 86
2020-08-26 01:00:00 25.7 5 Noroeste 11 Oeste 0 -- -- 86
2020-08-26 00:00:00 25.8 5 Sudoeste 13 Sudoeste 0 -- -- 86
2020-08-25 23:00:00 26.3 6 Oeste 27 Oeste 0 -- -- 84
2020-08-25 22:00:00 26.5 12 Sudoeste 27 Sudoeste 0 -- -- 83
2020-08-25 21:00:00 26.7 12 Sudoeste 32 Sur 0 -- -- 82
2020-08-25 20:00:00 27.4 16 Sudoeste 35 Sudoeste 0 -- -- 79
2020-08-25 19:00:00 28.6 19 Sur 42 Sudoeste 0 -- -- 76
2020-08-25 18:00:00 29.2 20 Sur 47 Sudoeste 0 -- -- 73
2020-08-25 17:00:00 29.7 23 Sur 59 Sudoeste 0 -- -- 68
2020-08-25 16:00:00 30.2 21 Sur 57 Sudoeste 0 -- -- 66
2020-08-25 15:00:00 30.4 28 Sur 53 Sur 0 -- -- 67
2020-08-25 14:00:00 30.6 28 Sur 50 Sur 0 -- -- 66
2020-08-25 13:00:00 30.6 22 Sur 42 Sudoeste 0 -- -- 66
2020-08-25 12:00:00 30 26 Sur 43 Sudoeste 0 -- -- 66
2020-08-25 11:00:00 29.7 18 Sur 29 Sur 0 -- -- 66
2020-08-25 10:00:00 27.4 9 Sur 20 Sur 0 -- -- 70
2020-08-25 09:00:00 24.9 5 Sudoeste 12 Sudoeste 0 -- -- 73
2020-08-25 08:00:00 22.6 6 Sudoeste 9 Sudoeste 0 -- -- 79
2020-08-25 07:00:00 22.1 7 Oeste 10 Oeste 0 -- -- 79
2020-08-25 06:00:00 22.1 4 Noroeste 15 Noroeste 0 -- -- 76
2020-08-25 05:00:00 22.2 12 Noroeste 15 Noroeste 0 -- -- 78
2020-08-25 04:00:00 23.1 12 Noroeste 16 Noroeste 0 -- -- 78
2020-08-25 03:00:00 23.5 6 Norte 15 Noroeste 0 -- -- 79
2020-08-25 02:00:00 23.6 10 Noroeste 15 Noroeste 0 -- -- 81
2020-08-25 01:00:00 24.2 7 Noroeste 10 Noroeste 0 -- -- 81
2020-08-25 00:00:00 24.7 5 Noroeste 12 Noroeste 0 -- -- 78
2020-08-24 23:00:00 24.8 5 Noroeste 15 Sudoeste 0 -- -- 77
2020-08-24 22:00:00 25 8 Sudoeste 26 Sudoeste 0 -- -- 76
2020-08-24 21:00:00 25 12 Sur 28 Sudoeste 0 -- -- 74
2020-08-24 20:00:00 26 14 Sur 23 Sudoeste 0 -- -- 69
2020-08-24 19:00:00 28 10 Sur 29 Sur 0 -- -- 61
2020-08-24 18:00:00 28.7 14 Sur 33 Sudoeste 0 -- -- 58
2020-08-24 17:00:00 30.6 10 Sur 23 Sudoeste 0 -- -- 52
2020-08-24 16:00:00 31.2 11 Sur 19 Sur 0 -- -- 50
2020-08-24 15:00:00 29.4 10 Sur 18 Sur 0 -- -- 54
2020-08-24 14:00:00 30.7 10 Sur 19 Sur 0 -- -- 50
2020-08-24 13:00:00 31.4 9 Sur 17 Sudoeste 0 -- -- 48
2020-08-24 12:00:00 30.3 10 Sur 15 Sudeste 0 -- -- 47
2020-08-24 11:00:00 28.3 5 Sudoeste 19 Norte 0 -- -- 48
2020-08-24 10:00:00 24.8 9 Norte 21 Norte 0 -- -- 52
2020-08-24 09:00:00 23.1 12 Norte 22 Norte 0 -- -- 56
2020-08-24 08:00:00 21.9 14 Norte 22 Norte 0 -- -- 59
2020-08-24 07:00:00 21.9 15 Norte 21 Noroeste 0 -- -- 62
2020-08-24 06:00:00 21.2 12 Norte 19 Norte 0.6 -- -- 71
2020-08-24 05:00:00 22.9 12 Norte 21 Noroeste 0 -- -- 73
2020-08-24 04:00:00 23.6 9 Noroeste 14 Norte 0 -- -- 77
2020-08-24 03:00:00 24.1 4 Norte 12 Noroeste 0 -- -- 77
2020-08-24 02:00:00 24.3 5 Noroeste 10 Oeste 0 -- -- 75
2020-08-24 01:00:00 24.4 5 Sudoeste 12 Sudoeste 0 -- -- 75
2020-08-24 00:00:00 24.7 9 Sudoeste 16 Sudoeste 0 -- -- 73
2020-08-23 23:00:00 24.8 8 Sur 14 Sur 0 -- -- 72
2020-08-23 22:00:00 24.8 4 Sudoeste 15 Sudoeste 0 -- -- 70
2020-08-23 21:00:00 25.2 9 Sur 16 Sur 0 -- -- 69
2020-08-23 20:00:00 26.1 5 Sur 15 Sudeste 0 -- -- 66
2020-08-23 19:00:00 27 7 Sur 16 Sur 0 -- -- 64
2020-08-23 18:00:00 28.9 8 Sur 18 Sur 0 -- -- 58
2020-08-23 17:00:00 28.7 9 Sur 19 Sur 0 -- -- 60
2020-08-23 16:00:00 29 11 Sur 21 Sur 0 -- -- 56
2020-08-23 15:00:00 32.4 11 Sur 23 Sur 0 -- -- 48
2020-08-23 14:00:00 31.7 11 Sur 20 Sur 0 -- -- 49
2020-08-23 13:00:00 32 10 Sur 20 Sur 0 -- -- 47
2020-08-23 12:00:00 31.4 9 Sur 19 Este 0 -- -- 46
2020-08-23 11:00:00 29.5 8 Sur 12 Sur 0 -- -- 47
2020-08-23 10:00:00 26.3 5 Norte 14 Norte 0 -- -- 52
2020-08-23 09:00:00 24.2 9 Norte 21 Norte 0 -- -- 58
2020-08-23 08:00:00 22.4 13 Norte 20 Norte 0 -- -- 63
2020-08-23 07:00:00 22.3 6 Norte 19 Norte 0 -- -- 63
2020-08-23 06:00:00 22.9 15 Norte 29 Norte 0 -- -- 60
2020-08-23 05:00:00 23.2 14 Norte 27 Noroeste 0 -- -- 59
2020-08-23 04:00:00 23.6 9 Noroeste 18 Norte 0 -- -- 58
2020-08-23 03:00:00 23.9 9 Norte 15 Norte 0 -- -- 55
2020-08-23 02:00:00 24.4 13 Norte 25 Norte 0 -- -- 53
2020-08-23 01:00:00 24 8 Nordeste 13 Norte 0 -- -- 55
2020-08-23 00:00:00 24.8 9 Norte 12 Norte 0 -- -- 57
2020-08-22 23:00:00 25.2 5 Norte 9 Norte 0 -- -- 70
2020-08-22 22:00:00 26 5 Nordeste 15 Sudoeste 0 -- -- 72
2020-08-22 21:00:00 26.5 8 Oeste 21 Sur 0 -- -- 70
2020-08-22 20:00:00 28.1 11 Sur 20 Sur 0 -- -- 63
2020-08-22 19:00:00 30.5 7 Sur 13 Sur 0 -- -- 57
2020-08-22 18:00:00 31.9 7 Sur 14 Sur 0 -- -- 54
2020-08-22 17:00:00 32.1 8 Sur 15 Sur 0 -- -- 53
2020-08-22 16:00:00 33.5 9 Sur 17 Sur 0 -- -- 52
2020-08-22 15:00:00 33.1 8 Sur 15 Sudeste 0 -- -- 53
2020-08-22 14:00:00 33.3 7 Sur 15 Sudeste 0 -- -- 50
2020-08-22 13:00:00 32.8 10 Sudeste 15 Sudeste 0 -- -- 51
2020-08-22 12:00:00 32 8 Sudeste 12 Sudeste 0 -- -- 53
2020-08-22 11:00:00 31.2 8 Sur 19 Este 0 -- -- 52
2020-08-22 10:00:00 28.4 7 Noroeste 16 Noroeste 0 -- -- 55
2020-08-22 09:00:00 26 5 Noroeste 13 Noroeste 0 -- -- 65
2020-08-22 08:00:00 24.9 9 Noroeste 26 Norte 0 -- -- 68
2020-08-22 07:00:00 24.8 8 Norte 21 Nordeste 0 -- -- 67
2020-08-22 06:00:00 25.2 8 Nordeste 26 Este 0 -- -- 81
2020-08-22 05:00:00 25.6 7 Norte 15 Norte 0 -- -- 89
2020-08-22 04:00:00 25.8 5 Norte 18 Norte 0 -- -- 87
2020-08-22 03:00:00 25.5 10 Norte 15 Norte 0 -- -- 89
2020-08-22 02:00:00 25.6 5 Norte 8 Nordeste 0 -- -- 89
2020-08-22 01:00:00 25.4 6 Norte 9 Nordeste 0 -- -- 90
2020-08-22 00:00:00 25.7 6 Norte 9 Nordeste 0 -- -- 92
2020-08-21 23:00:00 26.2 4 Nordeste 7 Este 0 -- -- 91
2020-08-21 22:00:00 26.6 0 Calma 6 Sudeste 0 -- -- 88
2020-08-21 21:00:00 27.1 4 Sur 9 Sudeste 0 -- -- 85
2020-08-21 20:00:00 28.6 5 Sur 15 Sur 0 -- -- 78
2020-08-21 19:00:00 30.1 9 Sur 15 Sur 0 -- -- 73
2020-08-21 18:00:00 31.6 10 Sur 17 Sur 0 -- -- 69
2020-08-21 17:00:00 33 12 Sur 21 Sudeste 0 -- -- 64
2020-08-21 16:00:00 33.3 11 Sudeste 19 Sudeste 0 -- -- 63
2020-08-21 15:00:00 32.4 8 Sur 17 Sudeste 0 -- -- 65
2020-08-21 14:00:00 32.9 8 Sudeste 13 Sudeste 0 -- -- 63
2020-08-21 13:00:00 31.2 6 Sur 9 Sur 0 -- -- 67
2020-08-21 12:00:00 31.3 5 Sur 9 Sur 0 -- -- 66
2020-08-21 11:00:00 29.6 4 Sudeste 8 Sudeste 0 -- -- 73
2020-08-21 10:00:00 28.6 4 Sur 7 Sudeste 0 -- -- 78
2020-08-21 09:00:00 26.3 2 Sudeste 4 Sudeste 0 -- -- 89
2020-08-21 08:00:00 24.3 0 Calma 2 Norte 0 -- -- 96
2020-08-21 07:00:00 23.6 0 Calma 7 Norte 0 -- -- 95
2020-08-21 06:00:00 23.8 5 Noroeste 6 Noroeste 0 -- -- 94
2020-08-21 05:00:00 24.2 3 Norte 8 Nordeste 0 -- -- 93
2020-08-21 04:00:00 24.6 5 Nordeste 10 Nordeste 0 -- -- 93
2020-08-21 03:00:00 24.7 4 Nordeste 6 Norte 0 -- -- 92
2020-08-21 02:00:00 25 4 Norte 7 Norte 0 -- -- 91
2020-08-21 01:00:00 25.2 2 Norte 5 Sur 0 -- -- 90
2020-08-21 00:00:00 25.5 3 Sur 6 Sur 0 -- -- 89
2020-08-20 23:00:00 25.7 2 Sudeste 8 Sur 0 -- -- 89
2020-08-20 22:00:00 26.3 4 Sur 8 Sur 0 -- -- 87
2020-08-20 21:00:00 27.2 4 Sur 11 Sur 0 -- -- 84
2020-08-20 20:00:00 28.6 6 Sur 17 Sur 0 -- -- 78
2020-08-20 19:00:00 30.1 8 Sur 15 Sur 0 -- -- 72
2020-08-20 18:00:00 31.4 9 Sur 21 Sur 0 -- -- 68
2020-08-20 17:00:00 32.3 10 Sur 20 Sur 0 -- -- 65
2020-08-20 16:00:00 32 10 Sur 19 Sur 0 -- -- 66
2020-08-20 15:00:00 32.4 8 Sur 17 Sudoeste 0 -- -- 62
2020-08-20 14:00:00 32.2 8 Sur 17 Sur 0 -- -- 63
2020-08-20 13:00:00 32.1 8 Sur 17 Sur 0 -- -- 65
2020-08-20 12:00:00 31.8 7 Sur 18 Sur 0 -- -- 67
2020-08-20 11:00:00 30.6 10 Sur 20 Sur 0 -- -- 70
2020-08-20 10:00:00 29 10 Sur 16 Sudoeste 0 -- -- 70
2020-08-20 09:00:00 26.8 5 Sudoeste 11 Sur 0 -- -- 75
2020-08-20 08:00:00 24.6 6 Sudoeste 21 Oeste -- -- -- 80
2020-08-20 07:00:00 23.8 8 Sudoeste 18 Sudoeste 0 -- -- 81
2020-08-20 06:00:00 24.4 9 Oeste 16 Oeste 0 -- -- 84
2020-08-20 05:00:00 24 9 Oeste 15 Sudoeste 0 -- -- 81
2020-08-20 04:00:00 23.9 6 Oeste 12 Sudoeste 0 -- -- 80
2020-08-20 03:00:00 24.6 6 Sudoeste 26 Sur 0 -- -- 79
2020-08-20 02:00:00 25.1 9 Sudoeste 27 Sudoeste 0 -- -- 84
2020-08-20 01:00:00 25.3 8 Sur 19 Sudoeste 0 -- -- 86
2020-08-20 00:00:00 25.6 9 Sudoeste 22 Sudoeste 0 -- -- 85
2020-08-19 23:00:00 26 10 Sudoeste 28 Sudoeste 0 -- -- 82
2020-08-19 22:00:00 26.2 13 Sudoeste 33 Sur 0 -- -- 80
2020-08-19 21:00:00 26.4 20 Sudoeste 41 Sudoeste 0 -- -- 80
2020-08-19 20:00:00 27.2 26 Sudoeste 55 Sudoeste 0 -- -- 76
2020-08-19 19:00:00 28.6 23 Sur 46 Sur 0 -- -- 68
2020-08-19 18:00:00 29.8 17 Sudoeste 47 Sudoeste 0 -- -- 64
2020-08-19 17:00:00 30 33 Sur 50 Sudoeste 0 -- -- 64
2020-08-19 16:00:00 30.1 32 Sur 52 Sudoeste 0 -- -- 63
2020-08-19 15:00:00 31.1 30 Sur 46 Sur 0 -- -- 64
2020-08-19 14:00:00 31.5 23 Sur 39 Sudoeste 0 -- -- 64
2020-08-19 13:00:00 30.6 23 Sur 44 Sur 0 -- -- 66
2020-08-19 12:00:00 30.2 24 Sur 35 Sur 0 -- -- 62
2020-08-19 11:00:00 29.3 7 Sur 11 Sur 0 -- -- 65
2020-08-19 10:00:00 27.6 5 Sur 11 Sur 0 -- -- 67
2020-08-19 09:00:00 25.2 4 Oeste 17 Noroeste 0 -- -- 73
2020-08-19 08:00:00 23.3 11 Noroeste 17 Noroeste 0 -- -- 65
2020-08-19 07:00:00 23.1 11 Noroeste 23 Noroeste 0 -- -- 64
2020-08-19 06:00:00 22.9 16 Noroeste 27 Noroeste 0 -- -- 65
2020-08-19 05:00:00 22.9 14 Noroeste 22 Noroeste 0 -- -- 65
2020-08-19 04:00:00 22.6 12 Noroeste 19 Noroeste 0 -- -- 77
2020-08-19 03:00:00 22.9 13 Noroeste 25 Noroeste 0 -- -- 77
2020-08-19 02:00:00 22.8 12 Noroeste 17 Noroeste 0 -- -- 78
2020-08-19 01:00:00 23.1 10 Noroeste 15 Oeste 0 -- -- 80
2020-08-19 00:00:00 23.2 5 Oeste 9 Noroeste 0 -- -- 82